createdAt,value
2022-10-11T00:00:13.236Z,100713.56
2022-10-11T00:02:40.270Z,100713.66
2022-10-11T00:05:08.341Z,100711.94
2022-10-11T00:07:36.886Z,100708.56
2022-10-11T00:10:16.229Z,100709.63
2022-10-11T00:12:54.020Z,100703.66
2022-10-11T00:15:32.695Z,100701.16
2022-10-11T00:18:10.328Z,100694.41
2022-10-11T00:20:48.538Z,100694.41
2022-10-11T00:23:26.775Z,100670.69
2022-10-11T00:26:07.537Z,100692.88
2022-10-11T00:28:46.348Z,100689.66
2022-10-11T00:31:24.684Z,100686.41
2022-10-11T00:34:03.657Z,100682.03
2022-10-11T00:36:42.687Z,100683.06
2022-10-11T00:39:21.127Z,100677.03
2022-10-11T00:42:00.544Z,100671.94
2022-10-11T00:44:40.952Z,100677.13
2022-10-11T00:47:21.749Z,100677.97
2022-10-11T00:50:01.800Z,100674.72
2022-10-11T00:52:48.162Z,100677.13
2022-10-11T00:55:31.423Z,100676.41
2022-10-11T00:58:09.571Z,100675.69
2022-10-11T01:00:47.435Z,100674.00
2022-10-11T01:03:28.622Z,100671.41
2022-10-11T01:06:07.604Z,100675.88
2022-10-11T01:08:58.412Z,100680.97
2022-10-11T01:11:41.441Z,100684.38
2022-10-11T01:14:42.755Z,100681.06
2022-10-11T01:17:40.560Z,100671.59
2022-10-11T01:20:30.809Z,100669.28
2022-10-11T01:23:27.318Z,100669.47
2022-10-11T01:26:22.037Z,100673.94
2022-10-11T01:29:45.066Z,100664.94
2022-10-11T01:32:30.949Z,100670.66
2022-10-11T01:35:15.309Z,100671.63
2022-10-11T01:38:08.421Z,100677.63
2022-10-11T01:40:55.212Z,100676.81
2022-10-11T01:43:35.155Z,100679.59
2022-10-11T01:46:13.670Z,100676.28
2022-10-11T01:48:58.431Z,100671.81
2022-10-11T01:51:45.104Z,100677.19
2022-10-11T01:54:56.457Z,100680.06
2022-10-11T01:58:12.649Z,100670.59
2022-10-11T02:01:01.461Z,100663.84
2022-10-11T02:03:48.270Z,100672.56
2022-10-11T02:06:34.426Z,100667.53
2022-10-11T02:09:15.077Z,100681.34
2022-10-11T02:11:56.713Z,100679.78
2022-10-11T02:14:40.567Z,100673.66
2022-10-11T02:17:23.185Z,100642.50
2022-10-11T02:20:06.587Z,100680.53
2022-10-11T02:22:49.266Z,100678.84
2022-10-11T02:25:34.864Z,100678.13
2022-10-11T02:28:18.896Z,100673.97
2022-10-11T02:31:01.885Z,100679.97
2022-10-11T02:34:16.728Z,100679.06
2022-10-11T02:37:10.689Z,100674.88
2022-10-11T02:39:55.543Z,100681.84
2022-10-11T02:42:40.516Z,100676.06
2022-10-11T02:45:25.575Z,100677.75
2022-10-11T02:48:06.238Z,100678.66
2022-10-11T02:50:45.073Z,100681.44
2022-10-11T02:53:24.393Z,100684.03
2022-10-11T02:56:03.097Z,100682.28
2022-10-11T02:58:41.100Z,100682.38
2022-10-11T03:01:20.390Z,100683.22
2022-10-11T03:03:58.998Z,100684.22
2022-10-11T03:06:37.220Z,100680.06
2022-10-11T03:09:15.444Z,100677.56
2022-10-11T03:11:53.855Z,100679.44
2022-10-11T03:14:31.845Z,100684.63
2022-10-11T03:17:34.647Z,100684.63
2022-10-11T03:20:07.965Z,100680.34
2022-10-11T03:22:45.677Z,100676.16
2022-10-11T03:25:23.845Z,100676.06
2022-10-11T03:28:02.120Z,100674.59
2022-10-11T03:30:40.275Z,100668.47
2022-10-11T03:33:19.353Z,100669.41
2022-10-11T03:35:58.248Z,100672.00
2022-10-11T03:38:36.500Z,100668.66
2022-10-11T03:41:14.672Z,100667.81
2022-10-11T03:43:52.825Z,100665.31
2022-10-11T03:46:31.566Z,100663.63
2022-10-11T03:49:09.344Z,100660.31
2022-10-11T03:51:47.416Z,100659.56
2022-10-11T03:54:25.980Z,100655.31
2022-10-11T03:57:04.129Z,100657.88
2022-10-11T03:59:42.147Z,100660.50
2022-10-11T04:02:21.399Z,100649.38
2022-10-11T04:05:00.144Z,100649.19
2022-10-11T04:07:39.486Z,100646.69
2022-10-11T04:10:18.387Z,100644.75
2022-10-11T04:12:56.236Z,100652.53
2022-10-11T04:15:34.577Z,100653.63
2022-10-11T04:18:12.737Z,100657.72
2022-10-11T04:20:51.198Z,100658.44
2022-10-11T04:23:31.512Z,100652.34
2022-10-11T04:26:09.161Z,100648.34
2022-10-11T04:28:47.141Z,100657.63
2022-10-11T04:31:25.328Z,100650.66
2022-10-11T04:34:03.760Z,100657.53
2022-10-11T04:36:44.347Z,100659.94
2022-10-11T04:39:37.197Z,100657.72
2022-10-11T04:42:14.670Z,100658.53
2022-10-11T04:44:52.832Z,100660.84
2022-10-11T04:47:31.285Z,100658.19
2022-10-11T04:50:09.302Z,100652.81
2022-10-11T04:52:47.512Z,100652.63
2022-10-11T04:55:27.553Z,100655.84
2022-10-11T04:58:05.107Z,100654.31
2022-10-11T05:00:43.783Z,100658.00
2022-10-11T05:03:22.011Z,100651.59
2022-10-11T05:06:05.162Z,100654.03
2022-10-11T05:08:46.691Z,100652.78
2022-10-11T05:11:26.615Z,100655.00
2022-10-11T05:14:05.115Z,100657.34
2022-10-11T05:16:43.456Z,100651.94
2022-10-11T05:19:22.288Z,100651.47
2022-10-11T05:22:00.467Z,100651.91
2022-10-11T05:24:38.741Z,100656.00
2022-10-11T05:27:16.880Z,100648.75
2022-10-11T05:29:55.210Z,100650.97
2022-10-11T05:32:33.619Z,100659.09
2022-10-11T05:35:11.524Z,100662.03
2022-10-11T05:37:49.774Z,100652.06
2022-10-11T05:40:27.937Z,100654.06
2022-10-11T05:43:06.590Z,100656.19
2022-10-11T05:45:45.061Z,100659.31
2022-10-11T05:48:24.151Z,100647.41
2022-10-11T05:51:05.291Z,100647.25
2022-10-11T05:53:43.785Z,100652.50
2022-10-11T05:56:24.711Z,100646.69
2022-10-11T05:59:04.444Z,100641.00
2022-10-11T06:01:43.216Z,100650.09
2022-10-11T06:04:21.561Z,100647.44
2022-10-11T06:06:59.541Z,100643.03
2022-10-11T06:09:37.921Z,100638.22
2022-10-11T06:12:16.336Z,100642.88
2022-10-11T06:15:11.691Z,100623.34
2022-10-11T06:18:09.495Z,100628.38
2022-10-11T06:21:13.827Z,100629.81
2022-10-11T06:24:07.034Z,100630.91
2022-10-11T06:27:02.619Z,100618.63
2022-10-11T06:29:54.999Z,100627.03
2022-10-11T06:32:51.091Z,100624.72
2022-10-11T06:35:43.221Z,100616.66
2022-10-11T06:38:44.502Z,100615.50
2022-10-11T06:41:40.251Z,100611.88
2022-10-11T06:44:41.161Z,100614.34
2022-10-11T06:47:32.962Z,100616.66
2022-10-11T06:50:54.461Z,100610.38
2022-10-11T06:53:40.711Z,100608.63
2022-10-11T06:56:33.075Z,100612.63
2022-10-11T06:59:33.705Z,100613.31
2022-10-11T07:02:25.334Z,100609.13
2022-10-11T07:05:17.592Z,100613.13
2022-10-11T07:08:13.300Z,100612.25
2022-10-11T07:11:14.408Z,100614.56
2022-10-11T07:14:15.208Z,100612.75
2022-10-11T07:17:19.522Z,100613.44
2022-10-11T07:20:15.023Z,100616.38
2022-10-11T07:23:07.245Z,100610.91
2022-10-11T07:26:02.270Z,100609.66
2022-10-11T07:28:57.835Z,100608.16
2022-10-11T07:32:04.980Z,100593.88
2022-10-11T07:35:00.522Z,100606.47
2022-10-11T07:37:56.158Z,100590.28
2022-10-11T07:40:47.659Z,100600.47
2022-10-11T07:43:39.578Z,100598.56
2022-10-11T07:46:34.243Z,100591.31
2022-10-11T07:49:38.241Z,100589.91
2022-10-11T07:52:39.074Z,100591.81
2022-10-11T07:55:40.259Z,100594.44
2022-10-11T07:58:32.274Z,100591.22
2022-10-11T08:01:27.693Z,100591.53
2022-10-11T08:04:19.489Z,100594.34
2022-10-11T08:07:13.417Z,100586.69
2022-10-11T08:10:26.379Z,100580.75
2022-10-11T08:13:21.468Z,100590.38
2022-10-11T08:16:20.015Z,100587.88
2022-10-11T08:19:21.317Z,100585.81
2022-10-11T08:22:15.694Z,100584.22
2022-10-11T08:25:11.484Z,100584.25
2022-10-11T08:28:07.919Z,100580.66
2022-10-11T08:31:03.796Z,100575.16
2022-10-11T08:33:59.812Z,100569.94
2022-10-11T08:36:57.823Z,100568.41
2022-10-11T08:39:50.205Z,100558.75
2022-10-11T08:43:05.945Z,100559.13
2022-10-11T08:46:03.166Z,100558.94
2022-10-11T08:48:35.994Z,100556.94
2022-10-11T08:51:13.708Z,100551.63
2022-10-11T08:54:08.170Z,100549.41
2022-10-11T08:56:40.041Z,100542.97
2022-10-11T08:59:13.028Z,100543.25
2022-10-11T09:01:52.664Z,100533.72
2022-10-11T09:04:20.074Z,100537.69
2022-10-11T09:07:07.729Z,100525.63
2022-10-11T09:10:12.763Z,100505.06
2022-10-11T09:13:13.117Z,100531.00
2022-10-11T09:16:11.128Z,100525.41
2022-10-11T09:19:03.978Z,100516.28
2022-10-11T09:21:36.893Z,100507.28
2022-10-11T09:24:25.530Z,100501.09
2022-10-11T09:26:57.297Z,100510.22
2022-10-11T09:29:30.142Z,100504.47
2022-10-11T09:31:58.420Z,100502.94
2022-10-11T09:34:32.423Z,100497.19
2022-10-11T09:37:03.035Z,100496.66
2022-10-11T09:40:07.318Z,100492.63
2022-10-11T09:42:34.443Z,100485.31
2022-10-11T09:45:02.297Z,100488.16
2022-10-11T09:47:33.164Z,100482.84
2022-10-11T09:50:16.655Z,100475.09
2022-10-11T09:53:09.709Z,100460.66
2022-10-11T09:55:54.150Z,100476.13
2022-10-11T09:58:31.160Z,100470.72
2022-10-11T10:01:08.597Z,100468.97
2022-10-11T10:03:43.856Z,100465.63
2022-10-11T10:06:22.616Z,100464.09
2022-10-11T10:08:50.758Z,100469.13
2022-10-11T10:11:19.482Z,100468.84
2022-10-11T10:13:56.958Z,100460.38
2022-10-11T10:16:24.019Z,100455.34
2022-10-11T10:18:57.271Z,100443.97
2022-10-11T10:21:37.431Z,100446.72
2022-10-11T10:24:33.597Z,100451.84
2022-10-11T10:27:21.295Z,100449.28
2022-10-11T10:30:10.232Z,100447.41
2022-10-11T10:33:03.797Z,100440.13
2022-10-11T10:35:45.652Z,100434.91
2022-10-11T10:38:12.675Z,100429.09
2022-10-11T10:40:47.287Z,100430.31
2022-10-11T10:43:20.335Z,100429.72
2022-10-11T10:45:57.893Z,100431.34
2022-10-11T10:49:01.694Z,100436.66
2022-10-11T10:51:45.344Z,100432.34
2022-10-11T10:54:21.687Z,100424.78
2022-10-11T10:56:55.424Z,100420.47
2022-10-11T10:59:28.263Z,100420.63
2022-10-11T11:02:15.922Z,100407.91
2022-10-11T11:05:05.393Z,100413.59
2022-10-11T11:07:46.042Z,100406.28
2022-10-11T11:10:21.970Z,100400.22
2022-10-11T11:13:26.461Z,100401.97
2022-10-11T11:16:04.833Z,100400.66
2022-10-11T11:18:34.942Z,100399.56
2022-10-11T11:21:04.778Z,100390.31
2022-10-11T11:23:43.314Z,100390.03
2022-10-11T11:26:30.874Z,100387.81
2022-10-11T11:29:15.018Z,100389.38
2022-10-11T11:32:09.810Z,100384.47
2022-10-11T11:34:47.962Z,100375.38
2022-10-11T11:37:27.156Z,100378.25
2022-10-11T11:39:59.212Z,100370.59
2022-10-11T11:42:37.189Z,100374.81
2022-10-11T11:45:27.496Z,100371.44
2022-10-11T11:48:04.935Z,100370.84
2022-10-11T11:50:42.176Z,100376.84
2022-10-11T11:53:18.876Z,100360.19
2022-10-11T11:56:08.686Z,100369.34
2022-10-11T11:58:59.708Z,100357.09
2022-10-11T12:02:07.063Z,100356.66
2022-10-11T12:04:40.539Z,100357.69
2022-10-11T12:07:17.675Z,100354.03
2022-10-11T12:09:51.828Z,100357.78
2022-10-11T12:12:37.155Z,100342.38
2022-10-11T12:15:10.303Z,100346.97
2022-10-11T12:18:01.800Z,100337.50
2022-10-11T12:20:40.946Z,100339.16
2022-10-11T12:23:29.249Z,100338.94
2022-10-11T12:26:33.493Z,100338.25
2022-10-11T12:29:06.093Z,100329.69
2022-10-11T12:31:35.951Z,100328.03
2022-10-11T12:34:17.142Z,100332.19
2022-10-11T12:36:47.095Z,100330.53
2022-10-11T12:39:20.160Z,100328.19
2022-10-11T12:41:55.679Z,100325.56
2022-10-11T12:44:24.218Z,100321.97
2022-10-11T12:46:51.084Z,100321.69
2022-10-11T12:49:20.888Z,100320.28
2022-10-11T12:52:13.804Z,100318.75
2022-10-11T12:54:59.463Z,100315.31
2022-10-11T12:57:46.519Z,100306.13
2022-10-11T13:00:39.992Z,100309.13
2022-10-11T13:03:32.810Z,100306.06
2022-10-11T13:06:02.073Z,100307.34
2022-10-11T13:08:38.034Z,100297.38
2022-10-11T13:11:08.893Z,100297.75
2022-10-11T13:13:51.032Z,100296.47
2022-10-11T13:16:21.497Z,100300.19
2022-10-11T13:18:50.759Z,100299.44
2022-10-11T13:21:31.150Z,100301.69
2022-10-11T13:24:19.757Z,100292.94
2022-10-11T13:26:49.111Z,100293.25
2022-10-11T13:29:38.154Z,100279.91
2022-10-11T13:32:13.678Z,100292.53
2022-10-11T13:34:41.856Z,100288.28
2022-10-11T13:37:17.426Z,100293.38
2022-10-11T13:39:45.808Z,100292.44
2022-10-11T13:42:16.046Z,100293.66
2022-10-11T13:44:44.583Z,100297.72
2022-10-11T13:47:14.786Z,100290.69
2022-10-11T13:49:53.626Z,100290.16
2022-10-11T13:52:24.059Z,100284.34
2022-10-11T13:54:59.079Z,100289.34
2022-10-11T13:57:40.771Z,100288.00
2022-10-11T14:00:10.472Z,100294.09
2022-10-11T14:02:39.598Z,100283.88
2022-10-11T14:05:06.813Z,100289.41
2022-10-11T14:07:38.532Z,100290.63
2022-10-11T14:10:07.018Z,100285.81
2022-10-11T14:12:44.452Z,100285.28
2022-10-11T14:15:35.904Z,100284.16
2022-10-11T14:18:33.792Z,100280.06
2022-10-11T14:21:19.130Z,100278.69
2022-10-11T14:23:53.397Z,100284.47
2022-10-11T14:26:21.770Z,100280.91
2022-10-11T14:29:00.738Z,100281.16
2022-10-11T14:31:30.385Z,100288.84
2022-10-11T14:33:58.364Z,100285.13
2022-10-11T14:36:26.147Z,100288.25
2022-10-11T14:38:53.690Z,100292.38
2022-10-11T14:41:20.920Z,100286.03
2022-10-11T14:43:47.856Z,100290.97
2022-10-11T14:46:24.967Z,100294.25
2022-10-11T14:48:56.048Z,100284.84
2022-10-11T14:51:29.277Z,100292.16
2022-10-11T14:53:56.278Z,100292.81
2022-10-11T14:56:23.751Z,100297.56
2022-10-11T14:58:51.010Z,100296.47
2022-10-11T15:01:18.168Z,100299.59
2022-10-11T15:03:45.310Z,100298.69
2022-10-11T15:06:22.900Z,100295.22
2022-10-11T15:08:50.459Z,100297.28
2022-10-11T15:11:19.125Z,100298.72
2022-10-11T15:13:46.566Z,100307.06
2022-10-11T15:16:15.464Z,100310.06
2022-10-11T15:18:42.847Z,100305.34
2022-10-11T15:21:16.462Z,100305.88
2022-10-11T15:23:43.372Z,100309.81
2022-10-11T15:26:14.958Z,100311.84
2022-10-11T15:28:43.002Z,100307.69
2022-10-11T15:31:11.142Z,100314.13
2022-10-11T15:33:39.027Z,100313.53
2022-10-11T15:36:08.584Z,100315.59
2022-10-11T15:38:36.192Z,100316.91
2022-10-11T15:41:03.572Z,100308.63
2022-10-11T15:43:30.752Z,100322.03
2022-10-11T15:45:58.100Z,100315.44
2022-10-11T15:48:26.987Z,100306.31
2022-10-11T15:50:54.459Z,100312.56
2022-10-11T15:53:25.906Z,100317.34
2022-10-11T15:55:54.547Z,100309.16
2022-10-11T15:58:28.346Z,100298.16
2022-10-11T16:00:57.782Z,100309.63
2022-10-11T16:03:27.628Z,100305.59
2022-10-11T16:05:55.719Z,100311.19
2022-10-11T16:08:23.539Z,100319.13
2022-10-11T16:10:51.539Z,100312.28
2022-10-11T16:13:18.614Z,100321.03
2022-10-11T16:15:46.218Z,100315.81
2022-10-11T16:18:14.928Z,100311.69
2022-10-11T16:20:44.747Z,100308.25
2022-10-11T16:23:12.185Z,100309.78
2022-10-11T16:25:40.033Z,100309.66
2022-10-11T16:28:08.180Z,100314.75
2022-10-11T16:30:39.069Z,100315.47
2022-10-11T16:33:06.113Z,100307.31
2022-10-11T16:35:33.194Z,100312.84
2022-10-11T16:38:01.051Z,100312.16
2022-10-11T16:40:29.964Z,100312.03
2022-10-11T16:42:56.888Z,100313.66
2022-10-11T16:45:24.156Z,100307.50
2022-10-11T16:47:51.110Z,100304.09
2022-10-11T16:50:18.737Z,100286.81
2022-10-11T16:52:45.813Z,100306.81
2022-10-11T16:55:12.759Z,100309.53
2022-10-11T16:57:39.854Z,100305.38
2022-10-11T17:00:10.696Z,100296.06
2022-10-11T17:02:37.768Z,100301.38
2022-10-11T17:05:05.044Z,100294.50
2022-10-11T17:07:32.390Z,100291.91
2022-10-11T17:10:01.187Z,100288.06
2022-10-11T17:12:28.327Z,100282.50
2022-10-11T17:14:55.564Z,100290.19
2022-10-11T17:17:22.521Z,100285.97
2022-10-11T17:19:49.588Z,100281.91
2022-10-11T17:22:19.369Z,100283.13
2022-10-11T17:24:46.623Z,100290.22
2022-10-11T17:27:13.770Z,100277.66
2022-10-11T17:29:41.199Z,100280.53
2022-10-11T17:32:08.565Z,100287.88
2022-10-11T17:34:35.694Z,100282.09
2022-10-11T17:37:02.719Z,100274.75
2022-10-11T17:39:29.676Z,100271.69
2022-10-11T17:41:56.681Z,100271.78
2022-10-11T17:44:23.647Z,100267.06
2022-10-11T17:46:50.641Z,100265.63
2022-10-11T17:49:17.748Z,100267.78
2022-10-11T17:51:44.979Z,100271.53
2022-10-11T17:54:13.172Z,100268.47
2022-10-11T17:56:41.807Z,100267.06
2022-10-11T17:59:18.737Z,100268.25
2022-10-11T18:01:45.680Z,100265.88
2022-10-11T18:04:16.798Z,100278.44
2022-10-11T18:06:46.252Z,100275.94
2022-10-11T18:09:15.264Z,100278.66
2022-10-11T18:11:43.157Z,100272.00
2022-10-11T18:14:10.162Z,100279.13
2022-10-11T18:16:38.097Z,100271.41
2022-10-11T18:19:08.309Z,100263.84
2022-10-11T18:21:36.788Z,100271.06
2022-10-11T18:24:12.771Z,100267.72
2022-10-11T18:26:39.943Z,100267.03
2022-10-11T18:29:07.428Z,100262.97
2022-10-11T18:31:35.340Z,100261.34
2022-10-11T18:34:04.500Z,100261.56
2022-10-11T18:36:32.599Z,100260.88
2022-10-11T18:39:06.186Z,100255.16
2022-10-11T18:41:35.365Z,100253.75
2022-10-11T18:44:06.296Z,100253.22
2022-10-11T18:46:34.238Z,100242.69
2022-10-11T18:49:02.271Z,100247.28
2022-10-11T18:51:34.837Z,100252.94
2022-10-11T18:54:02.291Z,100241.25
2022-10-11T18:56:30.755Z,100249.38
2022-10-11T18:58:59.007Z,100249.84
2022-10-11T19:01:32.371Z,100245.66
2022-10-11T19:04:01.941Z,100236.41
2022-10-11T19:06:34.616Z,100234.03
2022-10-11T19:09:09.360Z,100231.81
2022-10-11T19:11:36.889Z,100224.22
2022-10-11T19:14:11.115Z,100231.50
2022-10-11T19:16:40.598Z,100225.81
2022-10-11T19:19:09.424Z,100223.56
2022-10-11T19:21:36.284Z,100219.53
2022-10-11T19:24:04.903Z,100223.19
2022-10-11T19:26:37.169Z,100220.09
2022-10-11T19:29:08.178Z,100218.63
2022-10-11T19:31:37.163Z,100215.53
2022-10-11T19:34:04.089Z,100223.56
2022-10-11T19:36:36.308Z,100220.25
2022-10-11T19:39:05.310Z,100229.06
2022-10-11T19:41:32.316Z,100228.47
2022-10-11T19:43:59.707Z,100227.00
2022-10-11T19:46:49.843Z,100236.88
2022-10-11T19:49:17.659Z,100226.22
2022-10-11T19:51:45.078Z,100238.34
2022-10-11T19:54:14.024Z,100229.00
2022-10-11T19:56:42.516Z,100232.66
2022-10-11T19:59:11.194Z,100228.69
2022-10-11T20:01:38.406Z,100230.59
2022-10-11T20:04:07.616Z,100230.78
2022-10-11T20:06:38.512Z,100229.47
2022-10-11T20:09:28.525Z,100228.81
2022-10-11T20:11:56.885Z,100222.91
2022-10-11T20:14:23.961Z,100219.72
2022-10-11T20:16:51.295Z,100213.38
2022-10-11T20:19:18.890Z,100218.56
2022-10-11T20:21:46.104Z,100216.19
2022-10-11T20:24:13.268Z,100212.16
2022-10-11T20:26:40.107Z,100219.41
2022-10-11T20:29:07.494Z,100212.78
2022-10-11T20:31:40.819Z,100219.94
2022-10-11T20:34:08.071Z,100219.19
2022-10-11T20:36:36.396Z,100215.06
2022-10-11T20:39:04.733Z,100218.78
2022-10-11T20:41:36.972Z,100212.03
2022-10-11T20:44:04.749Z,100208.91
2022-10-11T20:46:33.851Z,100208.19
2022-10-11T20:49:03.558Z,100214.41
2022-10-11T20:51:32.394Z,100211.91
2022-10-11T20:54:00.664Z,100216.41
2022-10-11T20:56:28.536Z,100209.84
2022-10-11T20:58:57.161Z,100207.44
2022-10-11T21:01:32.633Z,100211.91
2022-10-11T21:04:01.361Z,100203.31
2022-10-11T21:06:29.596Z,100201.75
2022-10-11T21:08:59.010Z,100198.44
2022-10-11T21:11:31.289Z,100201.94
2022-10-11T21:14:00.927Z,100195.13
2022-10-11T21:16:28.500Z,100196.97
2022-10-11T21:18:57.375Z,100197.06
2022-10-11T21:21:25.367Z,100194.56
2022-10-11T21:23:56.332Z,100198.84
2022-10-11T21:26:23.876Z,100199.03
2022-10-11T21:28:51.331Z,100200.91
2022-10-11T21:31:20.604Z,100181.16
2022-10-11T21:33:48.117Z,100193.44
2022-10-11T21:36:20.529Z,100194.25
2022-10-11T21:38:48.451Z,100200.16
2022-10-11T21:41:21.831Z,100197.56
2022-10-11T21:43:49.401Z,100201.00
2022-10-11T21:46:20.934Z,100194.06
2022-10-11T21:48:50.106Z,100190.63
2022-10-11T21:51:29.765Z,100193.22
2022-10-11T21:53:59.670Z,100195.19
2022-10-11T21:56:30.432Z,100196.31
2022-10-11T21:58:57.531Z,100191.97
2022-10-11T22:01:24.802Z,100188.44
2022-10-11T22:03:53.565Z,100190.41
2022-10-11T22:06:21.555Z,100190.50
2022-10-11T22:08:50.096Z,100190.72
2022-10-11T22:11:17.630Z,100192.47
2022-10-11T22:13:44.912Z,100189.16
2022-10-11T22:16:13.306Z,100181.38
2022-10-11T22:18:41.486Z,100177.94
2022-10-11T22:21:14.652Z,100182.28
2022-10-11T22:23:43.918Z,100185.06
2022-10-11T22:26:16.790Z,100181.75
2022-10-11T22:28:46.506Z,100196.50
2022-10-11T22:31:14.884Z,100192.31
2022-10-11T22:33:42.267Z,100192.31
2022-10-11T22:36:12.058Z,100187.34
2022-10-11T22:38:42.940Z,100183.53
2022-10-11T22:41:10.515Z,100177.50
2022-10-11T22:43:37.956Z,100173.47
2022-10-11T22:46:05.730Z,100175.34
2022-10-11T22:48:32.768Z,100183.09
2022-10-11T22:51:00.199Z,100180.53
2022-10-11T22:53:27.273Z,100177.19
2022-10-11T22:55:54.387Z,100179.03
2022-10-11T22:58:21.223Z,100178.31
2022-10-11T23:00:48.104Z,100174.88
2022-10-11T23:03:16.906Z,100171.66
2022-10-11T23:05:43.978Z,100174.44
2022-10-11T23:08:12.001Z,100170.19
2022-10-11T23:10:40.134Z,100168.66
2022-10-11T23:13:07.246Z,100174.84
2022-10-11T23:15:34.145Z,100170.72
2022-10-11T23:18:01.011Z,100173.41
2022-10-11T23:20:27.981Z,100169.03
2022-10-11T23:22:54.935Z,100166.53
2022-10-11T23:25:21.786Z,100174.31
2022-10-11T23:27:48.666Z,100174.31
2022-10-11T23:30:15.863Z,100160.63
2022-10-11T23:32:42.823Z,100160.72
2022-10-11T23:35:10.002Z,100159.88
2022-10-11T23:37:37.274Z,100159.88
2022-10-11T23:40:04.944Z,100166.00
2022-10-11T23:42:32.019Z,100168.69
2022-10-11T23:44:59.357Z,100163.63
2022-10-11T23:47:26.251Z,100159.25
2022-10-11T23:49:53.323Z,100160.28
2022-10-11T23:52:20.271Z,100163.63
2022-10-11T23:54:47.313Z,100161.03
2022-10-11T23:57:14.553Z,100160.19
2022-10-11T23:59:41.646Z,100155.09
